sensor_id;sensor_type;location;lat;lon;timestamp;pressure;altitude;pressure_sealevel;temperature
78369;BMP280;71113;43.092;-89.268;2023-07-31T00:00:35;98455.69;;;21.67
78369;BMP280;71113;43.092;-89.268;2023-07-31T00:03:01;98465.88;;;21.65
78369;BMP280;71113;43.092;-89.268;2023-07-31T00:05:26;98459.69;;;21.74
78369;BMP280;71113;43.092;-89.268;2023-07-31T00:07:52;98458.59;;;21.75
78369;BMP280;71113;43.092;-89.268;2023-07-31T00:10:20;98457.47;;;21.76
78369;BMP280;71113;43.092;-89.268;2023-07-31T00:12:46;98460.56;;;21.78
78369;BMP280;71113;43.092;-89.268;2023-07-31T00:15:14;98460.25;;;21.79
78369;BMP280;71113;43.092;-89.268;2023-07-31T00:17:41;98461.78;;;21.80
78369;BMP280;71113;43.092;-89.268;2023-07-31T00:20:07;98459.22;;;21.84
78369;BMP280;71113;43.092;-89.268;2023-07-31T00:22:33;98455.94;;;21.87
78369;BMP280;71113;43.092;-89.268;2023-07-31T00:24:59;98457.44;;;21.88
78369;BMP280;71113;43.092;-89.268;2023-07-31T00:27:25;98460.88;;;21.88
78369;BMP280;71113;43.092;-89.268;2023-07-31T00:29:51;98453.28;;;21.87
78369;BMP280;71113;43.092;-89.268;2023-07-31T00:32:17;98453.28;;;21.87
78369;BMP280;71113;43.092;-89.268;2023-07-31T00:34:43;98453.59;;;21.85
78369;BMP280;71113;43.092;-89.268;2023-07-31T00:37:09;98457.81;;;21.86
78369;BMP280;71113;43.092;-89.268;2023-07-31T00:39:35;98449.84;;;21.86
78369;BMP280;71113;43.092;-89.268;2023-07-31T00:42:01;98454.78;;;21.88
78369;BMP280;71113;43.092;-89.268;2023-07-31T00:44:27;98456.03;;;21.90
78369;BMP280;71113;43.092;-89.268;2023-07-31T00:46:53;98454.28;;;21.94
78369;BMP280;71113;43.092;-89.268;2023-07-31T00:49:21;98458.44;;;21.95
78369;BMP280;71113;43.092;-89.268;2023-07-31T00:51:47;98452.91;;;22.00
78369;BMP280;71113;43.092;-89.268;2023-07-31T00:54:13;98453.47;;;22.06
78369;BMP280;71113;43.092;-89.268;2023-07-31T00:56:40;98455.13;;;22.11
78369;BMP280;71113;43.092;-89.268;2023-07-31T00:59:06;98456.53;;;22.08
78369;BMP280;71113;43.092;-89.268;2023-07-31T01:01:32;98455.22;;;22.14
78369;BMP280;71113;43.092;-89.268;2023-07-31T01:03:58;98468.75;;;22.09
78369;BMP280;71113;43.092;-89.268;2023-07-31T01:09:03;98469.81;;;22.08
78369;BMP280;71113;43.092;-89.268;2023-07-31T01:11:45;98477.59;;;22.13
78369;BMP280;71113;43.092;-89.268;2023-07-31T01:14:12;98474.94;;;22.13
78369;BMP280;71113;43.092;-89.268;2023-07-31T01:16:38;98472.94;;;22.10
78369;BMP280;71113;43.092;-89.268;2023-07-31T01:19:05;98470.59;;;22.09
78369;BMP280;71113;43.092;-89.268;2023-07-31T01:27:10;98477.69;;;22.04
78369;BMP280;71113;43.092;-89.268;2023-07-31T01:29:59;98478.28;;;21.98
78369;BMP280;71113;43.092;-89.268;2023-07-31T01:32:28;98466.97;;;22.01
78369;BMP280;71113;43.092;-89.268;2023-07-31T01:34:55;98462.13;;;22.03
78369;BMP280;71113;43.092;-89.268;2023-07-31T01:37:28;98465.19;;;22.05
78369;BMP280;71113;43.092;-89.268;2023-07-31T01:39:54;98465.09;;;22.01
78369;BMP280;71113;43.092;-89.268;2023-07-31T01:42:20;98460.75;;;21.97
78369;BMP280;71113;43.092;-89.268;2023-07-31T01:44:46;98468.75;;;21.97
78369;BMP280;71113;43.092;-89.268;2023-07-31T01:47:12;98472.09;;;21.94
78369;BMP280;71113;43.092;-89.268;2023-07-31T01:49:38;98476.28;;;21.95
78369;BMP280;71113;43.092;-89.268;2023-07-31T01:52:04;98471.63;;;21.92
78369;BMP280;71113;43.092;-89.268;2023-07-31T01:54:30;98476.53;;;21.90
78369;BMP280;71113;43.092;-89.268;2023-07-31T01:56:56;98471.19;;;21.90
78369;BMP280;71113;43.092;-89.268;2023-07-31T01:59:22;98471.88;;;21.87
78369;BMP280;71113;43.092;-89.268;2023-07-31T02:01:48;98475.41;;;21.79
78369;BMP280;71113;43.092;-89.268;2023-07-31T02:04:13;98477.19;;;21.75
78369;BMP280;71113;43.092;-89.268;2023-07-31T02:06:39;98476.03;;;21.88
78369;BMP280;71113;43.092;-89.268;2023-07-31T02:09:05;98483.69;;;21.89
78369;BMP280;71113;43.092;-89.268;2023-07-31T02:11:31;98481.34;;;21.88
78369;BMP280;71113;43.092;-89.268;2023-07-31T02:13:57;98479.84;;;21.87
78369;BMP280;71113;43.092;-89.268;2023-07-31T02:16:23;98482.03;;;21.85
78369;BMP280;71113;43.092;-89.268;2023-07-31T02:18:49;98485.03;;;21.83
78369;BMP280;71113;43.092;-89.268;2023-07-31T02:21:15;98489.59;;;21.83
78369;BMP280;71113;43.092;-89.268;2023-07-31T02:23:41;98484.28;;;21.83
78369;BMP280;71113;43.092;-89.268;2023-07-31T02:26:06;98480.47;;;21.84
78369;BMP280;71113;43.092;-89.268;2023-07-31T02:28:33;98482.69;;;21.82
78369;BMP280;71113;43.092;-89.268;2023-07-31T02:30:59;98487.13;;;21.78
78369;BMP280;71113;43.092;-89.268;2023-07-31T02:33:25;98494.31;;;21.77
78369;BMP280;71113;43.092;-89.268;2023-07-31T02:35:51;98486.03;;;21.79
78369;BMP280;71113;43.092;-89.268;2023-07-31T02:38:17;98479.25;;;21.81
78369;BMP280;71113;43.092;-89.268;2023-07-31T02:40:43;98486.47;;;21.81
78369;BMP280;71113;43.092;-89.268;2023-07-31T02:43:10;98478.47;;;21.81
78369;BMP280;71113;43.092;-89.268;2023-07-31T02:45:36;98481.81;;;21.78
78369;BMP280;71113;43.092;-89.268;2023-07-31T02:48:02;98482.81;;;21.73
78369;BMP280;71113;43.092;-89.268;2023-07-31T02:50:27;98487.69;;;21.71
78369;BMP280;71113;43.092;-89.268;2023-07-31T02:52:54;98489.88;;;21.69
78369;BMP280;71113;43.092;-89.268;2023-07-31T02:55:20;98486.44;;;21.68
78369;BMP280;71113;43.092;-89.268;2023-07-31T02:57:46;98487.44;;;21.64
78369;BMP280;71113;43.092;-89.268;2023-07-31T03:00:13;98490.75;;;21.61
78369;BMP280;71113;43.092;-89.268;2023-07-31T03:02:39;98488.09;;;21.61
78369;BMP280;71113;43.092;-89.268;2023-07-31T03:05:04;98486.56;;;21.60
78369;BMP280;71113;43.092;-89.268;2023-07-31T03:07:30;98482.69;;;21.57
78369;BMP280;71113;43.092;-89.268;2023-07-31T03:09:56;98481.78;;;21.53
78369;BMP280;71113;43.092;-89.268;2023-07-31T03:12:22;98487.44;;;21.52
78369;BMP280;71113;43.092;-89.268;2023-07-31T03:14:48;98493.06;;;21.50
78369;BMP280;71113;43.092;-89.268;2023-07-31T03:17:15;98496.84;;;21.49
78369;BMP280;71113;43.092;-89.268;2023-07-31T03:19:41;98489.97;;;21.48
78369;BMP280;71113;43.092;-89.268;2023-07-31T03:22:07;98489.53;;;21.46
78369;BMP280;71113;43.092;-89.268;2023-07-31T03:24:32;98492.84;;;21.43
78369;BMP280;71113;43.092;-89.268;2023-07-31T03:26:58;98491.94;;;21.39
78369;BMP280;71113;43.092;-89.268;2023-07-31T03:29:24;98490.41;;;21.38
78369;BMP280;71113;43.092;-89.268;2023-07-31T03:31:50;98501.78;;;21.38
78369;BMP280;71113;43.092;-89.268;2023-07-31T03:34:17;98503.56;;;21.34
78369;BMP280;71113;43.092;-89.268;2023-07-31T03:36:43;98503.88;;;21.33
78369;BMP280;71113;43.092;-89.268;2023-07-31T03:39:09;98508.41;;;21.32
78369;BMP280;71113;43.092;-89.268;2023-07-31T03:41:35;98515.94;;;21.30
78369;BMP280;71113;43.092;-89.268;2023-07-31T03:44:01;98522.00;;;21.31
78369;BMP280;71113;43.092;-89.268;2023-07-31T03:46:27;98515.38;;;21.25
78369;BMP280;71113;43.092;-89.268;2023-07-31T03:48:53;98505.53;;;21.25
78369;BMP280;71113;43.092;-89.268;2023-07-31T03:51:19;98508.84;;;21.22
78369;BMP280;71113;43.092;-89.268;2023-07-31T03:53:45;98512.25;;;21.23
78369;BMP280;71113;43.092;-89.268;2023-07-31T03:56:11;98511.69;;;21.17
78369;BMP280;71113;43.092;-89.268;2023-07-31T03:58:37;98505.63;;;21.17
78369;BMP280;71113;43.092;-89.268;2023-07-31T04:01:03;98510.00;;;21.13
78369;BMP280;71113;43.092;-89.268;2023-07-31T04:03:30;98511.09;;;21.12
78369;BMP280;71113;43.092;-89.268;2023-07-31T04:05:56;98509.56;;;21.11
78369;BMP280;71113;43.092;-89.268;2023-07-31T04:08:22;98503.00;;;21.08
78369;BMP280;71113;43.092;-89.268;2023-07-31T04:10:48;98506.78;;;21.07
78369;BMP280;71113;43.092;-89.268;2023-07-31T04:13:15;98512.06;;;21.07
78369;BMP280;71113;43.092;-89.268;2023-07-31T04:15:41;98524.56;;;21.06
78369;BMP280;71113;43.092;-89.268;2023-07-31T04:18:07;98521.16;;;21.06
78369;BMP280;71113;43.092;-89.268;2023-07-31T04:20:34;98518.81;;;21.04
78369;BMP280;71113;43.092;-89.268;2023-07-31T04:23:00;98517.63;;;21.02
78369;BMP280;71113;43.092;-89.268;2023-07-31T04:25:26;98525.41;;;20.98
78369;BMP280;71113;43.092;-89.268;2023-07-31T04:27:52;98521.53;;;20.96
78369;BMP280;71113;43.092;-89.268;2023-07-31T04:30:18;98527.16;;;20.94
78369;BMP280;71113;43.092;-89.268;2023-07-31T04:32:43;98519.88;;;20.91
78369;BMP280;71113;43.092;-89.268;2023-07-31T04:35:10;98532.69;;;20.89
78369;BMP280;71113;43.092;-89.268;2023-07-31T04:37:36;98527.38;;;20.89
78369;BMP280;71113;43.092;-89.268;2023-07-31T04:40:02;98528.78;;;20.87
78369;BMP280;71113;43.092;-89.268;2023-07-31T04:42:28;98535.97;;;20.86
78369;BMP280;71113;43.092;-89.268;2023-07-31T04:44:54;98544.13;;;20.81
78369;BMP280;71113;43.092;-89.268;2023-07-31T04:47:20;98550.84;;;20.79
78369;BMP280;71113;43.092;-89.268;2023-07-31T04:49:46;98552.72;;;20.78
78369;BMP280;71113;43.092;-89.268;2023-07-31T04:52:12;98553.84;;;20.77
78369;BMP280;71113;43.092;-89.268;2023-07-31T04:54:56;98560.22;;;20.76
78369;BMP280;71113;43.092;-89.268;2023-07-31T04:57:22;98569.94;;;20.72
78369;BMP280;71113;43.092;-89.268;2023-07-31T04:59:48;98559.75;;;20.74
78369;BMP280;71113;43.092;-89.268;2023-07-31T05:02:14;98554.66;;;20.69
78369;BMP280;71113;43.092;-89.268;2023-07-31T05:04:40;98558.06;;;20.69
78369;BMP280;71113;43.092;-89.268;2023-07-31T05:07:06;98560.59;;;20.66
78369;BMP280;71113;43.092;-89.268;2023-07-31T05:09:31;98559.53;;;20.67
78369;BMP280;71113;43.092;-89.268;2023-07-31T05:11:57;98564.97;;;20.62
78369;BMP280;71113;43.092;-89.268;2023-07-31T05:14:23;98557.72;;;20.59
78369;BMP280;71113;43.092;-89.268;2023-07-31T05:16:49;98561.00;;;20.56
78369;BMP280;71113;43.092;-89.268;2023-07-31T05:19:15;98553.81;;;20.56
78369;BMP280;71113;43.092;-89.268;2023-07-31T05:21:41;98551.66;;;20.50
78369;BMP280;71113;43.092;-89.268;2023-07-31T05:24:07;98552.56;;;20.54
78369;BMP280;71113;43.092;-89.268;2023-07-31T05:26:33;98551.38;;;20.51
78369;BMP280;71113;43.092;-89.268;2023-07-31T05:28:59;98554.78;;;20.52
78369;BMP280;71113;43.092;-89.268;2023-07-31T05:31:25;98550.56;;;20.51
78369;BMP280;71113;43.092;-89.268;2023-07-31T05:33:51;98545.13;;;20.47
78369;BMP280;71113;43.092;-89.268;2023-07-31T05:36:17;98546.88;;;20.43
78369;BMP280;71113;43.092;-89.268;2023-07-31T05:38:43;98548.75;;;20.42
78369;BMP280;71113;43.092;-89.268;2023-07-31T05:41:12;98539.72;;;20.43
78369;BMP280;71113;43.092;-89.268;2023-07-31T05:43:38;98538.31;;;20.37
78369;BMP280;71113;43.092;-89.268;2023-07-31T05:46:04;98538.97;;;20.34
78369;BMP280;71113;43.092;-89.268;2023-07-31T05:48:32;98535.69;;;20.37
78369;BMP280;71113;43.092;-89.268;2023-07-31T05:50:59;98546.28;;;20.37
78369;BMP280;71113;43.092;-89.268;2023-07-31T05:53:25;98542.72;;;20.33
78369;BMP280;71113;43.092;-89.268;2023-07-31T05:55:51;98544.88;;;20.31
78369;BMP280;71113;43.092;-89.268;2023-07-31T05:58:17;98537.28;;;20.30
78369;BMP280;71113;43.092;-89.268;2023-07-31T06:00:43;98538.38;;;20.29
78369;BMP280;71113;43.092;-89.268;2023-07-31T06:03:09;98524.66;;;20.27
78369;BMP280;71113;43.092;-89.268;2023-07-31T06:05:35;98527.16;;;20.23
78369;BMP280;71113;43.092;-89.268;2023-07-31T06:08:01;98525.16;;;20.20
78369;BMP280;71113;43.092;-89.268;2023-07-31T06:10:27;98529.25;;;20.18
78369;BMP280;71113;43.092;-89.268;2023-07-31T06:12:53;98525.03;;;20.17
78369;BMP280;71113;43.092;-89.268;2023-07-31T06:15:19;98520.69;;;20.12
78369;BMP280;71113;43.092;-89.268;2023-07-31T06:17:45;98530.22;;;20.13
78369;BMP280;71113;43.092;-89.268;2023-07-31T06:20:11;98530.22;;;20.13
78369;BMP280;71113;43.092;-89.268;2023-07-31T06:22:37;98526.66;;;20.09
78369;BMP280;71113;43.092;-89.268;2023-07-31T06:25:03;98533.97;;;20.03
78369;BMP280;71113;43.092;-89.268;2023-07-31T06:27:29;98514.97;;;20.01
78369;BMP280;71113;43.092;-89.268;2023-07-31T06:29:55;98510.44;;;20.02
78369;BMP280;71113;43.092;-89.268;2023-07-31T06:32:21;98510.00;;;20.00
78369;BMP280;71113;43.092;-89.268;2023-07-31T06:34:47;98516.38;;;19.99
78369;BMP280;71113;43.092;-89.268;2023-07-31T06:37:13;98510.59;;;19.97
78369;BMP280;71113;43.092;-89.268;2023-07-31T06:39:39;98503.34;;;19.94
78369;BMP280;71113;43.092;-89.268;2023-07-31T06:42:05;98503.00;;;19.95
78369;BMP280;71113;43.092;-89.268;2023-07-31T06:44:31;98509.25;;;19.91
78369;BMP280;71113;43.092;-89.268;2023-07-31T06:46:57;98508.50;;;19.90
78369;BMP280;71113;43.092;-89.268;2023-07-31T06:49:23;98512.69;;;19.91
78369;BMP280;71113;43.092;-89.268;2023-07-31T06:51:49;98510.66;;;19.88
78369;BMP280;71113;43.092;-89.268;2023-07-31T06:54:28;98513.66;;;19.87
78369;BMP280;71113;43.092;-89.268;2023-07-31T06:56:54;98512.09;;;19.86
78369;BMP280;71113;43.092;-89.268;2023-07-31T06:59:20;98509.72;;;19.84
78369;BMP280;71113;43.092;-89.268;2023-07-31T07:01:46;98505.06;;;19.81
78369;BMP280;71113;43.092;-89.268;2023-07-31T07:04:13;98510.22;;;19.77
78369;BMP280;71113;43.092;-89.268;2023-07-31T07:06:39;98501.06;;;19.75
78369;BMP280;71113;43.092;-89.268;2023-07-31T07:09:05;98501.06;;;19.75
78369;BMP280;71113;43.092;-89.268;2023-07-31T07:11:31;98493.28;;;19.78
78369;BMP280;71113;43.092;-89.268;2023-07-31T07:13:57;98495.75;;;19.75
78369;BMP280;71113;43.092;-89.268;2023-07-31T07:16:23;98508.41;;;19.69
78369;BMP280;71113;43.092;-89.268;2023-07-31T07:18:49;98502.31;;;19.69
78369;BMP280;71113;43.092;-89.268;2023-07-31T07:21:14;98504.19;;;19.68
78369;BMP280;71113;43.092;-89.268;2023-07-31T07:23:42;98500.31;;;19.66
78369;BMP280;71113;43.092;-89.268;2023-07-31T07:26:08;98499.22;;;19.67
78369;BMP280;71113;43.092;-89.268;2023-07-31T07:28:34;98495.97;;;19.61
78369;BMP280;71113;43.092;-89.268;2023-07-31T07:31:00;98500.31;;;19.57
78369;BMP280;71113;43.092;-89.268;2023-07-31T07:33:26;98516.81;;;19.54
78369;BMP280;71113;43.092;-89.268;2023-07-31T07:35:52;98517.50;;;19.51
78369;BMP280;71113;43.092;-89.268;2023-07-31T07:38:18;98525.84;;;19.53
78369;BMP280;71113;43.092;-89.268;2023-07-31T07:40:44;98534.28;;;19.55
78369;BMP280;71113;43.092;-89.268;2023-07-31T07:43:12;98533.34;;;19.60
78369;BMP280;71113;43.092;-89.268;2023-07-31T07:45:38;98542.06;;;19.60
78369;BMP280;71113;43.092;-89.268;2023-07-31T07:48:04;98541.28;;;19.60
78369;BMP280;71113;43.092;-89.268;2023-07-31T07:50:30;98542.38;;;19.59
78369;BMP280;71113;43.092;-89.268;2023-07-31T07:52:56;98551.53;;;19.61
78369;BMP280;71113;43.092;-89.268;2023-07-31T07:55:22;98555.28;;;19.60
78369;BMP280;71113;43.092;-89.268;2023-07-31T07:57:48;98554.19;;;19.61
78369;BMP280;71113;43.092;-89.268;2023-07-31T08:03:37;98564.16;;;19.64
78369;BMP280;71113;43.092;-89.268;2023-07-31T08:06:03;98563.84;;;19.66
78369;BMP280;71113;43.092;-89.268;2023-07-31T08:08:29;98567.56;;;19.65
78369;BMP280;71113;43.092;-89.268;2023-07-31T08:10:54;98567.88;;;19.63
78369;BMP280;71113;43.092;-89.268;2023-07-31T08:13:20;98562.75;;;19.67
78369;BMP280;71113;43.092;-89.268;2023-07-31T08:15:46;98566.31;;;19.62
78369;BMP280;71113;43.092;-89.268;2023-07-31T08:18:12;98573.81;;;19.60
78369;BMP280;71113;43.092;-89.268;2023-07-31T08:20:38;98577.84;;;19.66
78369;BMP280;71113;43.092;-89.268;2023-07-31T08:23:04;98589.22;;;19.67
78369;BMP280;71113;43.092;-89.268;2023-07-31T08:25:30;98579.41;;;19.59
78369;BMP280;71113;43.092;-89.268;2023-07-31T08:28:01;98584.53;;;19.64
78369;BMP280;71113;43.092;-89.268;2023-07-31T08:30:26;98585.78;;;19.66
78369;BMP280;71113;43.092;-89.268;2023-07-31T08:32:52;98592.47;;;19.64
78369;BMP280;71113;43.092;-89.268;2023-07-31T08:35:18;98599.47;;;19.68
78369;BMP280;71113;43.092;-89.268;2023-07-31T08:37:44;98594.34;;;19.63
78369;BMP280;71113;43.092;-89.268;2023-07-31T08:40:10;98595.31;;;19.59
78369;BMP280;71113;43.092;-89.268;2023-07-31T08:42:49;98600.44;;;19.55
78369;BMP280;71113;43.092;-89.268;2023-07-31T08:45:16;98604.31;;;19.66
78369;BMP280;71113;43.092;-89.268;2023-07-31T08:47:45;98609.28;;;19.68
78369;BMP280;71113;43.092;-89.268;2023-07-31T08:50:16;98610.06;;;19.68
78369;BMP280;71113;43.092;-89.268;2023-07-31T08:52:42;98611.94;;;19.68
78369;BMP280;71113;43.092;-89.268;2023-07-31T08:55:10;98606.50;;;19.64
78369;BMP280;71113;43.092;-89.268;2023-07-31T08:57:37;98610.38;;;19.67
78369;BMP280;71113;43.092;-89.268;2023-07-31T09:00:07;98605.88;;;19.67
78369;BMP280;71113;43.092;-89.268;2023-07-31T09:02:52;98609.75;;;19.70
78369;BMP280;71113;43.092;-89.268;2023-07-31T09:05:20;98607.09;;;19.70
78369;BMP280;71113;43.092;-89.268;2023-07-31T09:07:47;98609.94;;;19.56
78369;BMP280;71113;43.092;-89.268;2023-07-31T09:10:15;98613.34;;;19.65
78369;BMP280;71113;43.092;-89.268;2023-07-31T09:12:41;98611.94;;;19.68
78369;BMP280;71113;43.092;-89.268;2023-07-31T09:15:08;98613.63;;;19.72
78369;BMP280;71113;43.092;-89.268;2023-07-31T09:17:36;98611.31;;;19.71
78369;BMP280;71113;43.092;-89.268;2023-07-31T09:20:32;98603.53;;;19.66
78369;BMP280;71113;43.092;-89.268;2023-07-31T09:23:11;98588.91;;;19.68
78369;BMP280;71113;43.092;-89.268;2023-07-31T09:25:38;98585.47;;;19.68
78369;BMP280;71113;43.092;-89.268;2023-07-31T09:28:09;98582.69;;;19.64
78369;BMP280;71113;43.092;-89.268;2023-07-31T09:30:49;98576.75;;;19.67
78369;BMP280;71113;43.092;-89.268;2023-07-31T09:33:16;98578.00;;;19.70
78369;BMP280;71113;43.092;-89.268;2023-07-31T09:35:55;98562.13;;;19.61
78369;BMP280;71113;43.092;-89.268;2023-07-31T09:38:21;98566.16;;;19.67
78369;BMP280;71113;43.092;-89.268;2023-07-31T09:40:48;98565.22;;;19.72
78369;BMP280;71113;43.092;-89.268;2023-07-31T09:43:19;98566.47;;;19.57
78369;BMP280;71113;43.092;-89.268;2023-07-31T09:45:48;98567.13;;;19.63
78369;BMP280;71113;43.092;-89.268;2023-07-31T09:48:19;98567.44;;;19.61
78369;BMP280;71113;43.092;-89.268;2023-07-31T09:50:47;98570.38;;;19.68
78369;BMP280;71113;43.092;-89.268;2023-07-31T09:53:13;98570.38;;;19.68
78369;BMP280;71113;43.092;-89.268;2023-07-31T09:55:40;98567.56;;;19.65
78369;BMP280;71113;43.092;-89.268;2023-07-31T09:58:08;98565.69;;;19.65
78369;BMP280;71113;43.092;-89.268;2023-07-31T10:00:35;98583.13;;;19.66
78369;BMP280;71113;43.092;-89.268;2023-07-31T10:03:06;98584.84;;;19.71
78369;BMP280;71113;43.092;-89.268;2023-07-31T10:05:50;98574.09;;;19.67
78369;BMP280;71113;43.092;-89.268;2023-07-31T10:08:18;98579.09;;;19.69
78369;BMP280;71113;43.092;-89.268;2023-07-31T10:10:45;98577.38;;;19.64
78369;BMP280;71113;43.092;-89.268;2023-07-31T10:13:15;98570.38;;;19.68
78369;BMP280;71113;43.092;-89.268;2023-07-31T10:15:42;98573.16;;;19.72
78369;BMP280;71113;43.092;-89.268;2023-07-31T10:18:09;98575.06;;;19.63
78369;BMP280;71113;43.092;-89.268;2023-07-31T10:20:36;98576.75;;;19.67
78369;BMP280;71113;43.092;-89.268;2023-07-31T10:23:02;98576.13;;;19.70
78369;BMP280;71113;43.092;-89.268;2023-07-31T10:25:29;98569.59;;;19.68
78369;BMP280;71113;43.092;-89.268;2023-07-31T10:27:57;98565.06;;;19.68
78369;BMP280;71113;43.092;-89.268;2023-07-31T10:30:28;98566.66;;;19.61
78369;BMP280;71113;43.092;-89.268;2023-07-31T10:32:55;98577.22;;;19.69
78369;BMP280;71113;43.092;-89.268;2023-07-31T10:35:22;98573.00;;;19.68
78369;BMP280;71113;43.092;-89.268;2023-07-31T10:37:48;98577.06;;;19.66
78369;BMP280;71113;43.092;-89.268;2023-07-31T10:40:19;98571.00;;;19.65
78369;BMP280;71113;43.092;-89.268;2023-07-31T10:42:56;98591.06;;;19.66
78369;BMP280;71113;43.092;-89.268;2023-07-31T10:45:36;98589.66;;;19.69
78369;BMP280;71113;43.092;-89.268;2023-07-31T10:50:37;98588.00;;;19.56
78369;BMP280;71113;43.092;-89.268;2023-07-31T10:53:03;98587.34;;;19.67
78369;BMP280;71113;43.092;-89.268;2023-07-31T10:55:31;98598.88;;;19.63
78369;BMP280;71113;43.092;-89.268;2023-07-31T10:58:11;98604.78;;;19.60
78369;BMP280;71113;43.092;-89.268;2023-07-31T11:00:44;98610.22;;;19.63
78369;BMP280;71113;43.092;-89.268;2023-07-31T11:03:13;98616.47;;;19.67
78369;BMP280;71113;43.092;-89.268;2023-07-31T11:08:26;98624.06;;;19.69
78369;BMP280;71113;43.092;-89.268;2023-07-31T11:13:30;98616.59;;;19.62
78369;BMP280;71113;43.092;-89.268;2023-07-31T11:15:56;98615.69;;;19.67
78369;BMP280;71113;43.092;-89.268;2023-07-31T11:18:22;98610.53;;;19.70
78369;BMP280;71113;43.092;-89.268;2023-07-31T11:20:49;98610.69;;;19.65
78369;BMP280;71113;43.092;-89.268;2023-07-31T11:23:16;98607.88;;;19.62
78369;BMP280;71113;43.092;-89.268;2023-07-31T11:25:43;98611.19;;;19.59
78369;BMP280;71113;43.092;-89.268;2023-07-31T11:28:11;98614.59;;;19.59
78369;BMP280;71113;43.092;-89.268;2023-07-31T11:30:38;98623.94;;;19.65
78369;BMP280;71113;43.092;-89.268;2023-07-31T11:33:05;98631.88;;;19.65
78369;BMP280;71113;43.092;-89.268;2023-07-31T11:35:36;98641.06;;;19.59
78369;BMP280;71113;43.092;-89.268;2023-07-31T11:38:07;98649.47;;;19.61
78369;BMP280;71113;43.092;-89.268;2023-07-31T11:40:41;98659.44;;;19.64
78369;BMP280;71113;43.092;-89.268;2023-07-31T11:43:07;98669.09;;;19.60
78369;BMP280;71113;43.092;-89.268;2023-07-31T11:45:33;98664.09;;;19.67
78369;BMP280;71113;43.092;-89.268;2023-07-31T11:48:01;98667.38;;;19.64
78369;BMP280;71113;43.092;-89.268;2023-07-31T11:50:27;98667.69;;;19.63
78369;BMP280;71113;43.092;-89.268;2023-07-31T11:52:58;98667.06;;;19.74
78369;BMP280;71113;43.092;-89.268;2023-07-31T11:55:25;98666.59;;;19.64
78369;BMP280;71113;43.092;-89.268;2023-07-31T11:57:52;98672.50;;;19.61
78369;BMP280;71113;43.092;-89.268;2023-07-31T12:00:20;98681.53;;;19.68
78369;BMP280;71113;43.092;-89.268;2023-07-31T12:02:47;98689.47;;;19.68
78369;BMP280;71113;43.092;-89.268;2023-07-31T12:05:13;98683.25;;;19.73
78369;BMP280;71113;43.092;-89.268;2023-07-31T12:07:46;98693.53;;;19.74
78369;BMP280;71113;43.092;-89.268;2023-07-31T12:10:29;98683.88;;;19.78
78369;BMP280;71113;43.092;-89.268;2023-07-31T12:13:09;98692.75;;;19.83
78369;BMP280;71113;43.092;-89.268;2023-07-31T12:15:43;98690.72;;;19.79
78369;BMP280;71113;43.092;-89.268;2023-07-31T12:18:12;98691.31;;;19.85
78369;BMP280;71113;43.092;-89.268;2023-07-31T12:20:46;98701.63;;;19.87
78369;BMP280;71113;43.092;-89.268;2023-07-31T12:23:17;98690.56;;;19.85
78369;BMP280;71113;43.092;-89.268;2023-07-31T12:25:44;98683.69;;;19.84
78369;BMP280;71113;43.092;-89.268;2023-07-31T12:28:10;98695.69;;;19.81
78369;BMP280;71113;43.092;-89.268;2023-07-31T12:30:40;98695.84;;;19.85
78369;BMP280;71113;43.092;-89.268;2023-07-31T12:33:13;98705.22;;;19.91
78369;BMP280;71113;43.092;-89.268;2023-07-31T12:35:46;98702.22;;;19.92
78369;BMP280;71113;43.092;-89.268;2023-07-31T12:38:13;98695.72;;;19.90
78369;BMP280;71113;43.092;-89.268;2023-07-31T12:40:40;98698.34;;;19.90
78369;BMP280;71113;43.092;-89.268;2023-07-31T12:43:07;98704.72;;;19.97
78369;BMP280;71113;43.092;-89.268;2023-07-31T12:45:34;98697.41;;;20.03
78369;BMP280;71113;43.092;-89.268;2023-07-31T12:48:00;98706.44;;;20.02
78369;BMP280;71113;43.092;-89.268;2023-07-31T12:50:27;98705.50;;;20.06
78369;BMP280;71113;43.092;-89.268;2023-07-31T12:52:53;98713.78;;;20.05
78369;BMP280;71113;43.092;-89.268;2023-07-31T12:55:21;98723.25;;;20.06
78369;BMP280;71113;43.092;-89.268;2023-07-31T12:57:47;98720.00;;;20.00
78369;BMP280;71113;43.092;-89.268;2023-07-31T13:00:13;98725.28;;;20.00
78369;BMP280;71113;43.092;-89.268;2023-07-31T13:02:40;98737.59;;;20.14
78369;BMP280;71113;43.092;-89.268;2023-07-31T13:05:06;98739.75;;;20.20
78369;BMP280;71113;43.092;-89.268;2023-07-31T13:07:32;98743.03;;;20.26
78369;BMP280;71113;43.092;-89.268;2023-07-31T13:09:58;98742.53;;;20.32
78369;BMP280;71113;43.092;-89.268;2023-07-31T13:12:24;98756.72;;;20.36
78369;BMP280;71113;43.092;-89.268;2023-07-31T13:14:50;98760.59;;;20.39
78369;BMP280;71113;43.092;-89.268;2023-07-31T13:17:16;98759.97;;;20.42
78369;BMP280;71113;43.092;-89.268;2023-07-31T13:19:43;98763.41;;;20.42
78369;BMP280;71113;43.092;-89.268;2023-07-31T13:22:09;98767.44;;;20.49
78369;BMP280;71113;43.092;-89.268;2023-07-31T13:24:55;98774.44;;;20.53
78369;BMP280;71113;43.092;-89.268;2023-07-31T13:27:21;98766.97;;;20.55
78369;BMP280;71113;43.092;-89.268;2023-07-31T13:29:53;98764.59;;;20.62
78369;BMP280;71113;43.092;-89.268;2023-07-31T13:32:20;98763.66;;;20.67
78369;BMP280;71113;43.092;-89.268;2023-07-31T13:34:47;98766.28;;;20.75
78369;BMP280;71113;43.092;-89.268;2023-07-31T13:37:13;98765.66;;;20.79
78369;BMP280;71113;43.092;-89.268;2023-07-31T13:39:40;98766.72;;;20.86
78369;BMP280;71113;43.092;-89.268;2023-07-31T13:42:07;98770.59;;;20.89
78369;BMP280;71113;43.092;-89.268;2023-07-31T13:44:34;98770.28;;;20.90
78369;BMP280;71113;43.092;-89.268;2023-07-31T13:47:01;98765.28;;;20.97
78369;BMP280;71113;43.092;-89.268;2023-07-31T13:49:28;98763.53;;;21.01
78369;BMP280;71113;43.092;-89.268;2023-07-31T13:51:54;98763.97;;;21.03
78369;BMP280;71113;43.092;-89.268;2023-07-31T13:54:20;98770.69;;;21.10
78369;BMP280;71113;43.092;-89.268;2023-07-31T13:56:46;98776.75;;;21.10
78369;BMP280;71113;43.092;-89.268;2023-07-31T13:59:12;98776.59;;;21.06
78369;BMP280;71113;43.092;-89.268;2023-07-31T14:01:38;98777.22;;;21.03
78369;BMP280;71113;43.092;-89.268;2023-07-31T14:04:04;98775.69;;;21.02